Historyczne dane pomiarowe

Dodano dane terminowe – wersja testowa.

Dane z okresu 1951-2019

Wersja bazy: 1.34 [2019-03-16, lista zmian], aktualizacja planowana na 2019-04-15

Dane meteo z obszaru Polski uzyskane na podstawie danych udostępnionych przez Instytut Meteorologii i Gospodarki Wodnej – Państwowy Instytut Badawczy.

 

Wybierz Datę:    

       

TemperaturaWilgotnośćWiatrCiśnienieOpadyŚniegCzas trwania zjawisk
 Stacja t tx tn tng RH VA  wxwx mslp ppp RRR   cm mm wxwxwxwxwxwxwx
2019-07-01 21.1 28.5 12.7 8.6 71.8- 5.0 3.7---- 7.7------------
2019-05-31 14.2 22.6 1.0 -0.3 59.5- 1.7 3.0---- 0.0------------
2019-05-30 11.7 18.6 2.0 -0.3 64.0- 0.0 2.3---- 0.0------------
2019-05-29 12.1 16.5 10.2 9.9 78.8- 7.3 5.0---- 1.8------------
2019-05-28 16.3 23.4 9.4 7.3 86.5- 6.7 3.0---- 23.0------------
2019-05-27 18.0 24.5 12.4 10.9 66.8- 6.0 2.7---- 0.2------------
2019-05-26 12.5 17.6 3.8 -0.2 64.5- 8.0 4.7---- 0.0------------
2019-05-25 14.5 21.8 4.3 2.3 62.5- 4.0 4.0---- 0.0------------
2019-05-24 14.6 20.0 10.7 11.0 77.8- 5.3 2.7---- 0.0------------
2019-05-23 16.1 24.4 7.1 5.3 84.5- 5.3 4.3---- 0.0------------
2019-05-22 16.4 22.6 10.3 8.2 80.0- 3.0 3.3---- 0.0------------
2019-05-21 17.7 23.7 11.9 10.4 82.8- 6.7 6.7---- 4.3------------
2019-05-20 19.6 25.7 14.6 13.1 72.8- 5.0 4.0---- 11.5------------
2019-05-19 18.0 22.2 13.6 12.9 76.0- 6.7 3.7---- 0.0------------
2019-05-18 16.9 23.1 9.7 8.2 85.0- 6.7 4.3---- 9.0------------
2019-05-17 16.5 20.6 13.5 13.4 92.3- 8.0 4.3---- 0.6------------
2019-05-16 14.3 18.1 11.6 11.3 96.0- 8.0 6.3---- 7.5------------
2019-05-15 11.3 14.1 7.6 7.9 88.8- 8.0 4.3---- 20.8------------
2019-05-14 7.4 9.6 5.7 4.9 88.3- 8.0 3.7---- 0.0------------
2019-05-13 10.1 16.2 7.1 7.0 86.8- 8.0 5.7---- 1.9------------
2019-05-12 11.4 19.8 0.9 -0.6 73.0- 2.3 2.3---- 0.0------------
2019-05-11 11.1 18.8 5.5 5.2 86.5- 6.7 2.7---- 2.8------------
2019-05-10 10.2 15.1 3.2 -1.5 72.5- 7.7 2.0---- 0.9------------
2019-05-09 9.6 18.3 -0.7 -6.6 40.5- 2.3 3.7---- 0.0------------
2019-05-08 6.1 13.8 -5.5 -9.5 48.3- 2.3 1.7---- 0.0------------
2019-05-07 8.1 13.7 2.9 2.0 63.8- 4.3 5.0---- 0.0------------
2019-05-06 6.2 14.0 -3.5 -8.5 55.5- 4.7 4.3---- 0.0------------
2019-05-05 6.3 10.9 3.3 2.3 74.3- 5.7 4.3---- 0.2------------
2019-05-04 7.0 13.4 0.5 -1.9 70.8- 5.3 3.0---- 0.0------------
2019-05-03 7.1 11.2 4.5 3.0 79.5- 6.3 3.0---- 0.8------------
176.0 ms

 

Źródłem pochodzenia danych jest Instytut Meteorologii i Gospodarki Wodnej – Państwowy Instytut Badawczy. Dane Instytutu Meteorologii i Gospodarki Wodnej – Państwowego Instytutu Badawczego zostały przetworzone.

Dane źródłowe można odnaleźć na stronie https://dane.imgw.pl